Time;durP1;ratioP1;P1;durP2;ratioP2;P2;SDS_P1;SDS_P2;PMS_P1;PMS_P2;Temp;Humidity;BMP_temperature;BMP_pressure;BME280_temperature;BME280_humidity;BME280_pressure;Samples;Min_cycle;Max_cycle;Signal;HPM_P1;HPM_P2
2022/09/18 00:01:32;;;;;;;2.50;1.60;;;11.20;99.90;;;;;;5094561;28;20245;-81
2022/09/18 00:04:01;;;;;;;2.95;1.83;;;11.00;99.90;;;;;;5076374;28;20115;-79
2022/09/18 00:06:33;;;;;;;2.15;1.50;;;11.10;99.90;;;;;;5094049;28;20024;-81
2022/09/18 00:09:01;;;;;;;2.05;1.50;;;11.20;99.90;;;;;;5094645;28;20033;-81
2022/09/18 00:11:29;;;;;;;4.85;1.55;;;11.20;99.90;;;;;;5094348;28;20043;-81
2022/09/18 00:13:55;;;;;;;3.75;1.60;;;11.20;99.90;;;;;;5094092;28;20263;-81
2022/09/18 00:16:23;;;;;;;2.65;1.60;;;11.00;99.90;;;;;;5101639;28;20540;-81
2022/09/18 00:18:49;;;;;;;2.58;1.42;;;11.10;99.90;;;;;;5114581;28;20076;-81
2022/09/18 00:21:18;;;;;;;2.50;1.40;;;11.20;99.90;;;;;;5114651;28;20384;-80
2022/09/18 00:23:44;;;;;;;3.47;1.70;;;11.30;99.90;;;;;;5114835;28;20012;-81
2022/09/18 00:26:12;;;;;;;2.35;1.67;;;11.00;99.90;;;;;;5113767;28;20059;-81
2022/09/18 00:28:37;;;;;;;2.42;1.73;;;11.10;99.90;;;;;;5114263;28;20098;-81
2022/09/18 00:31:15;;;;;;;2.95;1.50;;;11.10;99.90;;;;;;5100193;28;20087;-81
2022/09/18 00:33:41;;;;;;;3.30;1.52;;;11.00;99.90;;;;;;5093569;28;20580;-81
2022/09/18 00:36:12;;;;;;;2.65;1.58;;;10.80;99.90;;;;;;5093896;28;20080;-80
2022/09/18 00:38:38;;;;;;;3.13;1.80;;;10.90;99.90;;;;;;5093742;28;20024;-81
2022/09/18 00:41:07;;;;;;;3.20;1.60;;;10.80;99.90;;;;;;5093653;28;20055;-81
2022/09/18 00:43:34;;;;;;;2.85;1.80;;;10.80;99.90;;;;;;5093701;28;20396;-81
2022/09/18 00:46:15;;;;;;;2.38;1.60;;;10.60;99.90;;;;;;5075614;28;20358;-81
2022/09/18 00:48:56;;;;;;;3.88;1.80;;;10.80;99.90;;;;;;5093169;28;20467;-81
2022/09/18 00:51:24;;;;;;;4.38;1.63;;;10.70;99.90;;;;;;5094140;28;20099;-81
2022/09/18 00:54:00;;;;;;;6.05;1.70;;;10.60;99.90;;;;;;5093400;28;20058;-81
2022/09/18 00:56:26;;;;;;;3.33;1.83;;;10.70;99.90;;;;;;5075250;28;20039;-81
2022/09/18 00:58:52;;;;;;;5.90;1.90;;;10.60;99.90;;;;;;5093580;28;20028;-81
2022/09/18 01:01:17;;;;;;;1.95;1.30;;;10.70;99.90;;;;;;5093381;28;20213;-81
2022/09/18 01:03:43;;;;;;;2.72;1.50;;;10.70;99.90;;;;;;5093114;28;20020;-81
2022/09/18 01:06:14;;;;;;;3.35;2.08;;;10.70;99.90;;;;;;5093401;28;20031;-81
2022/09/18 01:09:08;;;;;;;5.38;2.00;;;10.80;99.90;;;;;;5092747;28;20034;-81
2022/09/18 01:12:03;;;;;;;3.53;1.77;;;10.80;99.90;;;;;;5093098;28;20448;-81
2022/09/18 01:14:47;;;;;;;2.28;1.42;;;10.50;99.90;;;;;;5093219;28;20035;-81
2022/09/18 01:17:16;;;;;;;5.43;1.67;;;10.10;99.90;;;;;;5089227;28;20034;-81
2022/09/18 01:19:48;;;;;;;1.40;1.30;;;9.80;99.90;;;;;;5113227;28;20025;-81
2022/09/18 01:22:41;;;;;;;2.20;1.45;;;9.90;99.90;;;;;;5113431;28;20019;-81
2022/09/18 01:25:19;;;;;;;3.38;1.45;;;9.90;99.90;;;;;;5113138;28;20091;-81
2022/09/18 01:27:56;;;;;;;2.85;1.60;;;10.00;99.90;;;;;;5113321;28;20060;-81
2022/09/18 01:30:22;;;;;;;2.78;1.40;;;10.20;99.90;;;;;;5086507;28;20119;-81
2022/09/18 01:32:58;;;;;;;3.33;1.65;;;10.30;99.90;;;;;;5092206;28;20094;-80
2022/09/18 01:35:35;;;;;;;5.97;1.85;;;10.30;99.90;;;;;;5092859;28;20016;-81
2022/09/18 01:38:19;;;;;;;4.88;1.65;;;10.40;99.90;;;;;;5092485;28;20028;-81
2022/09/18 01:40:54;;;;;;;4.93;2.05;;;10.10;99.90;;;;;;5092975;28;20047;-81
2022/09/18 01:43:21;;;;;;;3.70;1.75;;;9.80;99.90;;;;;;5092483;28;20111;-81
2022/09/18 01:45:49;;;;;;;4.35;1.67;;;9.70;99.90;;;;;;5092036;28;20020;-81
2022/09/18 01:48:46;;;;;;;4.20;1.60;;;9.60;99.90;;;;;;5092520;28;20324;-81
2022/09/18 01:51:21;;;;;;;4.65;2.05;;;9.90;99.90;;;;;;5091733;28;20093;-81
2022/09/18 01:53:52;;;;;;;3.03;1.67;;;9.80;99.90;;;;;;5092627;28;20473;-81
2022/09/18 01:56:32;;;;;;;3.58;1.40;;;9.90;99.90;;;;;;5092636;28;20077;-81
2022/09/18 01:59:02;;;;;;;2.08;1.20;;;9.90;99.90;;;;;;5092303;28;20062;-81
2022/09/18 02:01:31;;;;;;;2.95;1.58;;;10.10;99.90;;;;;;5092336;28;20496;-81
2022/09/18 02:04:06;;;;;;;2.33;1.67;;;10.10;99.90;;;;;;5092943;28;20024;-81
2022/09/18 02:06:38;;;;;;;2.35;1.52;;;9.80;99.90;;;;;;5092331;28;20047;-81
2022/09/18 02:09:04;;;;;;;3.78;1.90;;;9.80;99.90;;;;;;5092451;28;20024;-81
2022/09/18 02:11:33;;;;;;;4.68;1.60;;;9.80;99.90;;;;;;5092400;28;20025;-81
2022/09/18 02:14:11;;;;;;;4.03;1.75;;;9.90;99.90;;;;;;5092426;28;20020;-81
2022/09/18 02:17:00;;;;;;;3.53;1.65;;;9.80;99.90;;;;;;5091940;28;20028;-81
2022/09/18 02:19:41;;;;;;;6.82;1.80;;;9.80;99.90;;;;;;5092484;28;20383;-81
2022/09/18 02:22:11;;;;;;;4.45;1.55;;;9.80;99.90;;;;;;5091881;28;20024;-81
2022/09/18 02:24:40;;;;;;;3.47;1.73;;;9.80;99.90;;;;;;5092212;28;20154;-81
2022/09/18 02:27:08;;;;;;;3.08;1.92;;;9.60;99.90;;;;;;5092490;28;20025;-82
2022/09/18 02:29:34;;;;;;;2.35;1.67;;;9.60;99.90;;;;;;5091946;28;20031;-81
2022/09/18 02:32:01;;;;;;;2.50;1.70;;;9.90;99.90;;;;;;5091959;28;20044;-80
2022/09/18 02:34:27;;;;;;;4.53;2.03;;;9.70;99.90;;;;;;5092170;28;20051;-81
2022/09/18 02:36:53;;;;;;;4.50;1.83;;;9.70;99.90;;;;;;5092107;28;20515;-81
2022/09/18 02:39:39;;;;;;;2.78;1.73;;;9.60;99.90;;;;;;5092254;28;20030;-81
2022/09/18 02:42:17;;;;;;;3.70;1.55;;;9.60;99.90;;;;;;5091936;28;20052;-81
2022/09/18 02:45:13;;;;;;;2.10;1.45;;;9.40;99.90;;;;;;5091904;28;20056;-81
2022/09/18 02:47:56;;;;;;;3.40;1.60;;;9.40;99.90;;;;;;5091860;28;20146;-81
2022/09/18 02:50:35;;;;;;;3.97;1.60;;;9.40;99.90;;;;;;5094917;28;20551;-81
2022/09/18 02:53:07;;;;;;;6.00;2.38;;;9.50;99.90;;;;;;5095812;28;20025;-81
2022/09/18 02:55:43;;;;;;;4.13;1.80;;;9.80;99.90;;;;;;5095659;28;20028;-81
2022/09/18 02:58:25;;;;;;;3.00;1.73;;;9.40;99.90;;;;;;5095854;28;20153;-81
2022/09/18 03:00:53;;;;;;;3.88;1.50;;;9.50;99.90;;;;;;5094294;28;20067;-81
2022/09/18 03:03:24;;;;;;;5.32;1.77;;;9.40;99.90;;;;;;5095564;28;20032;-81
2022/09/18 03:05:50;;;;;;;4.57;1.80;;;9.30;99.90;;;;;;5095677;28;20035;-81
2022/09/18 03:08:15;;;;;;;2.95;1.92;;;9.40;99.90;;;;;;5095591;28;20028;-81
2022/09/18 03:10:41;;;;;;;2.75;1.70;;;9.40;99.90;;;;;;5095956;28;20552;-81
2022/09/18 03:13:06;;;;;;;4.85;1.67;;;9.60;99.90;;;;;;5094836;28;20031;-81
2022/09/18 03:15:32;;;;;;;4.20;1.90;;;9.30;99.90;;;;;;5095922;28;20020;-81
2022/09/18 03:17:58;;;;;;;3.00;1.80;;;9.60;99.90;;;;;;5115739;28;20384;-81
2022/09/18 03:20:23;;;;;;;4.35;1.70;;;9.40;99.90;;;;;;5115570;28;20510;-81
2022/09/18 03:22:49;;;;;;;4.53;2.00;;;9.30;99.90;;;;;;5116056;28;20019;-81
2022/09/18 03:25:14;;;;;;;4.25;1.85;;;9.30;99.90;;;;;;5115587;28;20035;-81
2022/09/18 03:27:41;;;;;;;2.55;1.58;;;9.10;99.90;;;;;;5115180;28;20024;-81
2022/09/18 03:30:07;;;;;;;3.55;1.77;;;9.10;99.90;;;;;;5109219;28;20054;-81
2022/09/18 03:32:33;;;;;;;3.88;1.90;;;9.20;99.90;;;;;;5094898;28;20093;-81
2022/09/18 03:34:59;;;;;;;4.03;1.85;;;9.10;99.90;;;;;;5094961;28;20040;-81
2022/09/18 03:37:24;;;;;;;3.35;1.90;;;9.20;99.90;;;;;;5094976;28;20039;-81
2022/09/18 03:39:50;;;;;;;4.80;1.95;;;9.10;99.90;;;;;;5094949;28;20073;-81
2022/09/18 03:42:15;;;;;;;3.13;2.10;;;9.10;99.90;;;;;;5094907;28;20039;-81
2022/09/18 03:44:41;;;;;;;4.57;2.15;;;8.90;99.90;;;;;;5094805;28;20165;-81
2022/09/18 03:47:08;;;;;;;3.78;1.90;;;9.00;99.90;;;;;;5094786;28;20020;-81
2022/09/18 03:49:34;;;;;;;5.60;2.03;;;9.10;99.90;;;;;;5095401;28;20095;-81
2022/09/18 03:52:00;;;;;;;2.97;1.67;;;9.00;99.90;;;;;;5094528;28;20036;-81
2022/09/18 03:54:25;;;;;;;5.60;2.00;;;9.10;99.90;;;;;;5094865;28;20024;-81
2022/09/18 03:56:51;;;;;;;2.40;1.90;;;9.00;99.90;;;;;;5094281;28;20028;-81
2022/09/18 03:59:17;;;;;;;6.25;1.83;;;9.00;99.90;;;;;;5094512;28;20073;-81
2022/09/18 04:01:42;;;;;;;3.65;1.83;;;8.80;99.90;;;;;;5093094;28;20031;-81
2022/09/18 04:04:08;;;;;;;4.53;1.77;;;9.20;99.90;;;;;;5094556;28;20024;-81
2022/09/18 04:06:34;;;;;;;3.08;2.10;;;8.90;99.90;;;;;;5094493;28;20034;-81
2022/09/18 04:08:59;;;;;;;4.13;2.00;;;8.90;99.90;;;;;;5094398;28;20577;-81
2022/09/18 04:11:25;;;;;;;3.92;1.88;;;8.70;99.90;;;;;;5094193;28;20032;-81
2022/09/18 04:13:51;;;;;;;2.75;1.85;;;8.60;99.90;;;;;;5094540;28;20077;-81
2022/09/18 04:16:16;;;;;;;4.60;1.98;;;8.60;99.90;;;;;;5100798;28;20027;-81
2022/09/18 04:18:42;;;;;;;4.50;2.45;;;9.10;99.90;;;;;;5114668;28;20036;-81
2022/09/18 04:21:08;;;;;;;3.20;2.00;;;8.80;99.90;;;;;;5114496;28;20133;-81
2022/09/18 04:23:33;;;;;;;3.28;2.22;;;8.90;99.90;;;;;;5114570;28;20023;-79
2022/09/18 04:26:00;;;;;;;3.63;2.13;;;8.80;99.90;;;;;;5114160;28;20032;-81
2022/09/18 04:28:26;;;;;;;3.25;2.22;;;8.80;99.90;;;;;;5114439;28;20012;-81
2022/09/18 04:30:51;;;;;;;4.53;2.10;;;8.80;99.90;;;;;;5102043;28;20071;-81
2022/09/18 04:33:17;;;;;;;3.33;1.90;;;8.70;99.90;;;;;;5093765;28;20051;-81
2022/09/18 04:35:43;;;;;;;3.75;1.80;;;8.70;99.90;;;;;;5093942;28;20024;-81
2022/09/18 04:38:08;;;;;;;3.40;1.90;;;8.90;99.90;;;;;;5094275;28;20020;-81
2022/09/18 04:40:34;;;;;;;5.07;2.30;;;8.80;99.90;;;;;;5093395;28;20476;-81
2022/09/18 04:42:59;;;;;;;7.20;2.15;;;8.70;99.90;;;;;;5094408;28;20016;-81
2022/09/18 04:45:25;;;;;;;6.63;2.50;;;8.70;99.90;;;;;;5093656;28;20031;-81
2022/09/18 04:47:51;;;;;;;3.88;2.50;;;8.70;99.90;;;;;;5093935;28;20099;-81
2022/09/18 04:50:16;;;;;;;5.35;2.40;;;9.00;99.90;;;;;;5093620;28;20476;-81
2022/09/18 04:52:43;;;;;;;2.72;2.40;;;8.70;99.90;;;;;;5093995;28;20012;-81
2022/09/18 04:55:08;;;;;;;7.32;2.42;;;9.00;99.90;;;;;;5093171;28;20081;-80
2022/09/18 04:57:34;;;;;;;5.60;2.03;;;8.70;99.90;;;;;;5093600;28;20468;-81
2022/09/18 05:00:00;;;;;;;4.47;2.22;;;8.60;99.90;;;;;;5093352;28;20111;-81
2022/09/18 05:02:25;;;;;;;4.15;2.00;;;8.60;99.90;;;;;;5075101;28;20733;-81
2022/09/18 05:04:51;;;;;;;3.20;1.90;;;8.50;99.90;;;;;;5093749;28;20027;-81
2022/09/18 05:07:17;;;;;;;5.45;1.98;;;8.80;99.90;;;;;;5093365;28;20067;-81
2022/09/18 05:09:42;;;;;;;7.70;2.28;;;8.70;99.90;;;;;;5092920;28;20051;-80
2022/09/18 05:12:08;;;;;;;4.82;1.77;;;8.50;99.90;;;;;;5093166;28;20070;-81
2022/09/18 05:14:34;;;;;;;4.90;2.00;;;8.40;99.90;;;;;;5093030;28;20042;-81
2022/09/18 05:17:00;;;;;;;5.75;2.00;;;8.30;99.90;;;;;;5105823;28;20027;-81
2022/09/18 05:19:27;;;;;;;2.67;1.73;;;8.70;99.90;;;;;;5113452;28;20054;-81
2022/09/18 05:21:52;;;;;;;9.45;2.28;;;8.40;99.90;;;;;;5113384;28;20034;-81
2022/09/18 05:24:18;;;;;;;4.93;1.90;;;8.70;99.90;;;;;;5113401;28;20020;-81
2022/09/18 05:26:44;;;;;;;4.85;1.90;;;8.40;99.90;;;;;;5113298;28;20028;-81
2022/09/18 05:29:10;;;;;;;2.88;2.00;;;8.80;99.90;;;;;;5113194;28;20805;-81
2022/09/18 05:31:36;;;;;;;3.83;1.75;;;8.50;99.90;;;;;;5094386;28;20031;-80
2022/09/18 05:34:02;;;;;;;4.55;1.90;;;8.70;99.90;;;;;;5092856;28;20106;-81
2022/09/18 05:36:27;;;;;;;3.95;2.00;;;8.40;99.90;;;;;;5092964;28;20024;-80
2022/09/18 05:38:53;;;;;;;6.78;2.40;;;8.50;99.90;;;;;;5092383;28;20055;-81
2022/09/18 05:41:18;;;;;;;4.78;1.98;;;8.50;99.90;;;;;;5092898;28;20125;-81
2022/09/18 05:43:44;;;;;;;1.90;1.52;;;8.70;99.90;;;;;;5092498;28;20073;-81
2022/09/18 05:46:10;;;;;;;3.83;1.95;;;8.60;99.90;;;;;;5092115;28;20031;-81
2022/09/18 05:48:37;;;;;;;2.72;1.92;;;8.70;99.90;;;;;;5092521;28;20369;-81
2022/09/18 05:51:02;;;;;;;3.40;1.88;;;8.60;99.90;;;;;;5093291;28;20039;-81
2022/09/18 05:53:28;;;;;;;6.07;2.17;;;8.50;99.90;;;;;;5092152;28;20024;-82
2022/09/18 05:55:54;;;;;;;4.45;1.95;;;8.70;99.90;;;;;;5092575;28;20093;-82
2022/09/18 05:58:20;;;;;;;4.00;2.10;;;8.50;99.90;;;;;;5092299;28;20107;-82
2022/09/18 06:00:46;;;;;;;3.65;2.00;;;8.50;99.90;;;;;;5092673;28;20063;-81
2022/09/18 06:03:14;;;;;;;4.65;1.80;;;8.80;99.90;;;;;;5092382;28;20016;-81
2022/09/18 06:05:41;;;;;;;2.83;2.00;;;8.60;99.90;;;;;;5092096;28;20511;-81
2022/09/18 06:08:09;;;;;;;4.97;1.67;;;8.70;99.90;;;;;;5092425;28;20020;-81
2022/09/18 06:10:36;;;;;;;4.03;2.00;;;8.70;99.90;;;;;;5092254;28;20066;-82
2022/09/18 06:13:04;;;;;;;5.40;2.25;;;8.60;99.90;;;;;;5092072;28;20031;-81
2022/09/18 06:15:31;;;;;;;4.40;2.13;;;9.00;99.90;;;;;;5091470;28;20027;-82
2022/09/18 06:17:57;;;;;;;3.72;2.00;;;8.80;99.90;;;;;;5092008;28;20102;-82
2022/09/18 06:20:23;;;;;;;3.47;2.10;;;9.10;99.90;;;;;;5091533;28;20174;-82
2022/09/18 06:22:48;;;;;;;4.00;2.10;;;8.90;99.90;;;;;;5091869;28;20020;-82
2022/09/18 06:25:18;;;;;;;3.97;2.20;;;9.00;99.90;;;;;;5095166;28;20039;-82
2022/09/18 06:27:43;;;;;;;3.47;2.17;;;9.10;99.90;;;;;;5096063;28;20016;-82
2022/09/18 06:30:10;;;;;;;4.45;2.20;;;9.40;99.90;;;;;;5096591;28;20028;-82
2022/09/18 06:32:35;;;;;;;4.15;2.00;;;9.10;99.90;;;;;;5096023;28;20060;-82
2022/09/18 06:35:01;;;;;;;3.72;2.13;;;9.30;99.90;;;;;;5096181;28;20036;-82
2022/09/18 06:37:26;;;;;;;5.38;2.45;;;9.30;99.90;;;;;;5095870;28;20101;-82
2022/09/18 06:39:52;;;;;;;6.32;2.15;;;9.60;99.90;;;;;;5096307;28;20031;-82
2022/09/18 06:42:18;;;;;;;4.05;2.30;;;9.30;99.90;;;;;;5096685;28;20032;-82
2022/09/18 06:44:43;;;;;;;3.67;2.00;;;9.50;99.90;;;;;;5096150;28;20468;-81
2022/09/18 06:47:09;;;;;;;6.18;2.20;;;9.60;99.90;;;;;;5096028;28;20070;-81
2022/09/18 06:49:34;;;;;;;4.55;1.92;;;9.80;99.90;;;;;;5095866;28;20047;-81
2022/09/18 06:52:00;;;;;;;2.53;1.80;;;9.80;99.90;;;;;;5095410;28;20353;-79
2022/09/18 06:54:26;;;;;;;5.05;2.10;;;9.70;99.90;;;;;;5095504;28;20084;-82
2022/09/18 06:56:51;;;;;;;3.17;2.17;;;9.70;99.90;;;;;;5094110;28;20022;-80
2022/09/18 06:59:17;;;;;;;4.50;2.47;;;10.00;99.90;;;;;;5094614;28;20476;-76
2022/09/18 07:01:45;;;;;;;4.57;2.22;;;10.20;99.90;;;;;;5095801;28;20059;-82
2022/09/18 07:04:10;;;;;;;3.92;2.40;;;10.50;99.90;;;;;;5095248;28;20114;-80
2022/09/18 07:06:36;;;;;;;5.88;2.38;;;10.20;99.90;;;;;;5076595;28;20123;-85
2022/09/18 07:09:02;;;;;;;4.80;2.03;;;10.30;99.90;;;;;;5095602;28;20085;-86
2022/09/18 07:11:27;;;;;;;7.13;1.88;;;10.40;99.90;;;;;;5095429;28;20040;-79
2022/09/18 07:13:53;;;;;;;4.07;2.35;;;10.50;99.90;;;;;;5095341;28;20031;-80
2022/09/18 07:16:18;;;;;;;5.43;2.17;;;10.60;99.90;;;;;;5094658;28;20028;-87
2022/09/18 07:18:46;;;;;;;5.60;2.00;;;10.70;99.90;;;;;;5095809;28;20024;-85
2022/09/18 07:21:12;;;;;;;6.38;2.10;;;10.70;99.90;;;;;;5076266;28;20474;-85
2022/09/18 07:23:37;;;;;;;6.00;2.42;;;10.70;99.90;;;;;;5094969;28;20146;-85
2022/09/18 07:26:03;;;;;;;6.25;2.00;;;10.80;99.90;;;;;;5094946;28;20032;-85
2022/09/18 07:28:29;;;;;;;4.63;2.10;;;10.70;99.90;;;;;;5095104;28;20146;-85
2022/09/18 07:30:55;;;;;;;4.60;2.13;;;10.90;99.90;;;;;;5095152;28;20032;-85
2022/09/18 07:33:21;;;;;;;4.72;2.60;;;11.10;99.90;;;;;;5094444;28;20044;-86
2022/09/18 07:35:47;;;;;;;5.35;1.90;;;11.20;99.90;;;;;;5093990;28;20039;-86
2022/09/18 07:38:12;;;;;;;6.15;2.25;;;11.10;99.90;;;;;;5095070;28;20066;-87
2022/09/18 07:40:42;;;;;;;5.10;2.10;;;11.10;99.90;;;;;;5094849;28;20036;-86
2022/09/18 07:43:09;;;;;;;4.57;1.90;;;11.00;99.90;;;;;;5095125;28;20024;-86
2022/09/18 07:45:36;;;;;;;4.55;1.80;;;11.00;99.90;;;;;;5094663;28;20070;-86
2022/09/18 07:48:04;;;;;;;6.32;2.22;;;11.10;99.90;;;;;;5093492;28;20034;-84
2022/09/18 07:50:29;;;;;;;5.18;1.92;;;11.20;99.90;;;;;;5094136;28;20043;-83
2022/09/18 07:52:58;;;;;;;6.32;2.13;;;11.30;99.90;;;;;;5094519;28;20484;-84
2022/09/18 07:55:25;;;;;;;5.68;1.75;;;11.60;99.90;;;;;;5093957;28;20028;-84
2022/09/18 07:57:57;;;;;;;7.10;2.15;;;11.30;99.90;;;;;;5099992;28;20510;-85
2022/09/18 08:00:23;;;;;;;5.80;1.92;;;11.30;99.90;;;;;;5114840;28;20055;-85
2022/09/18 08:02:49;;;;;;;4.70;2.00;;;11.30;99.90;;;;;;5100731;28;20024;-85
2022/09/18 08:05:14;;;;;;;7.55;2.00;;;11.60;99.90;;;;;;5094889;28;20408;-85
2022/09/18 08:07:40;;;;;;;5.70;2.17;;;11.50;99.90;;;;;;5094334;28;20017;-85
2022/09/18 08:10:06;;;;;;;5.78;1.80;;;11.50;99.90;;;;;;5094533;28;20128;-85
2022/09/18 08:12:32;;;;;;;5.05;2.03;;;11.60;99.90;;;;;;5094208;28;20055;-84
2022/09/18 08:14:58;;;;;;;3.88;1.85;;;11.60;99.90;;;;;;5094361;28;20483;-83
2022/09/18 08:17:24;;;;;;;6.18;2.03;;;11.50;99.90;;;;;;5093721;28;20081;-84
2022/09/18 08:19:50;;;;;;;6.32;1.98;;;11.70;99.90;;;;;;5094031;28;20035;-84
2022/09/18 08:22:16;;;;;;;4.35;1.90;;;11.80;99.90;;;;;;5093878;28;20510;-84
2022/09/18 08:24:41;;;;;;;4.85;1.98;;;11.90;99.90;;;;;;5094470;28;20514;-84
2022/09/18 08:27:07;;;;;;;4.70;2.30;;;12.00;99.90;;;;;;5094029;28;20403;-83
2022/09/18 08:29:33;;;;;;;3.50;2.00;;;12.10;99.90;;;;;;5093185;28;20023;-84
2022/09/18 08:31:59;;;;;;;3.63;2.25;;;12.10;99.90;;;;;;5082141;28;20540;-84
2022/09/18 08:34:25;;;;;;;5.60;2.22;;;12.20;99.90;;;;;;5114592;28;20024;-83
2022/09/18 08:36:51;;;;;;;5.63;2.00;;;12.40;99.90;;;;;;5109957;28;20393;-84
2022/09/18 08:39:16;;;;;;;3.35;2.00;;;12.30;99.90;;;;;;5114141;28;20098;-83
2022/09/18 08:41:51;;;;;;;4.07;2.00;;;12.30;99.90;;;;;;5111947;28;20027;-92
2022/09/18 08:44:52;;;;;;;3.97;1.92;;;12.20;99.90;;;;;;5114140;28;20019;-84
2022/09/18 08:47:26;;;;;;;2.00;1.52;;;12.40;99.90;;;;;;5113037;28;20099;-83
2022/09/18 08:49:56;;;;;;;4.68;2.13;;;12.50;99.90;;;;;;5075983;28;20077;-83
2022/09/18 08:52:27;;;;;;;3.05;1.80;;;12.40;99.90;;;;;;5093036;28;20601;-84
2022/09/18 08:55:00;;;;;;;5.82;2.03;;;12.70;99.90;;;;;;5093463;28;20048;-83
2022/09/18 08:57:45;;;;;;;5.38;2.13;;;12.90;99.90;;;;;;5092415;28;20450;-84
2022/09/18 09:00:22;;;;;;;3.38;1.65;;;13.20;99.90;;;;;;5073269;28;20025;-83
2022/09/18 09:02:59;;;;;;;3.33;1.70;;;13.40;99.90;;;;;;5080703;28;20065;-84
2022/09/18 09:05:34;;;;;;;4.20;1.80;;;14.00;99.90;;;;;;5092016;28;20028;-84
2022/09/18 09:08:21;;;;;;;3.90;1.67;;;18.40;99.90;;;;;;5106217;28;20140;-85
2022/09/18 09:10:56;;;;;;;4.75;1.85;;;23.90;99.90;;;;;;5079426;28;20020;-86
2022/09/18 09:13:49;;;;;;;5.68;1.77;;;27.70;99.90;;;;;;5089142;28;20568;-86
2022/09/18 09:16:29;;;;;;;4.47;1.77;;;30.00;99.90;;;;;;5090964;28;20085;-84
2022/09/18 09:19:30;;;;;;;5.53;1.65;;;31.10;99.90;;;;;;5093647;28;20044;-75
2022/09/18 09:22:17;;;;;;;4.18;1.75;;;32.00;99.90;;;;;;5070497;28;20166;-75
2022/09/18 09:25:03;;;;;;;4.45;1.70;;;31.80;99.90;;;;;;5092944;28;20017;-75
2022/09/18 09:27:36;;;;;;;4.25;1.60;;;32.20;99.90;;;;;;5092208;28;20028;-78
2022/09/18 09:30:13;;;;;;;4.28;1.80;;;33.20;99.90;;;;;;5092670;28;20028;-78
2022/09/18 09:32:50;;;;;;;6.43;1.55;;;33.80;99.90;;;;;;5091902;28;20048;-77
2022/09/18 09:35:26;;;;;;;3.60;1.52;;;32.20;99.90;;;;;;5092232;28;20353;-77
2022/09/18 09:37:53;;;;;;;6.45;2.05;;;32.80;99.90;;;;;;5092624;28;20052;-78
2022/09/18 09:40:31;;;;;;;3.92;1.80;;;31.90;99.90;;;;;;5094066;28;20078;-78
2022/09/18 09:43:14;;;;;;;3.60;1.40;;;32.70;99.90;;;;;;5108752;28;20117;-78
2022/09/18 09:45:47;;;;;;;3.15;1.40;;;33.90;99.90;;;;;;5087823;28;20399;-76
2022/09/18 09:48:25;;;;;;;3.33;1.40;;;35.00;99.90;;;;;;5088101;28;20484;-75
2022/09/18 09:51:37;;;;;;;4.35;1.52;;;35.00;99.90;;;;;;5090280;28;20048;-78
2022/09/18 09:54:09;;;;;;;3.42;1.30;;;35.30;99.90;;;;;;4985017;28;20046;-77
2022/09/18 09:56:53;;;;;;;4.43;1.60;;;34.70;99.90;;;;;;4987493;28;20596;-76
2022/09/18 09:59:39;;;;;;;5.22;1.50;;;35.00;99.90;;;;;;4980538;28;20475;-76
2022/09/18 10:02:17;;;;;;;2.80;1.33;;;36.00;99.90;;;;;;4986393;28;20054;-76
2022/09/18 10:05:09;;;;;;;3.65;1.45;;;36.40;99.90;;;;;;4985756;28;20034;-79
2022/09/18 10:08:01;;;;;;;5.10;1.52;;;36.70;99.90;;;;;;4990603;28;20129;-79
2022/09/18 10:10:32;;;;;;;2.60;1.40;;;37.40;99.90;;;;;;4988401;28;20046;-79
2022/09/18 10:13:03;;;;;;;3.33;1.35;;;37.30;99.90;;;;;;4986326;28;20034;-79
2022/09/18 10:15:43;;;;;;;3.33;1.40;;;37.30;99.90;;;;;;4986777;28;20014;-79
2022/09/18 10:18:16;;;;;;;3.13;1.10;;;36.60;99.90;;;;;;4986350;28;20510;-79
2022/09/18 10:20:44;;;;;;;3.05;1.42;;;34.70;99.90;;;;;;4986282;28;20046;-79
2022/09/18 10:23:21;;;;;;;4.70;1.20;;;35.60;99.90;;;;;;4986882;28;20073;-78
2022/09/18 10:25:55;;;;;;;3.22;1.40;;;36.20;99.90;;;;;;4987723;28;20250;-78
2022/09/18 10:28:24;;;;;;;3.50;1.38;;;36.40;99.90;;;;;;4992563;28;20035;-77
2022/09/18 10:30:56;;;;;;;2.72;1.40;;;37.10;99.90;;;;;;5088020;28;20024;-78
2022/09/18 10:33:34;;;;;;;3.88;1.17;;;36.40;99.90;;;;;;5070237;28;20055;-77
2022/09/18 10:36:18;;;;;;;2.75;1.17;;;36.70;99.90;;;;;;5088811;28;20111;-78
2022/09/18 10:38:44;;;;;;;2.70;1.10;;;37.70;99.90;;;;;;5088486;28;20046;-77
2022/09/18 10:41:24;;;;;;;2.08;1.30;;;38.10;99.90;;;;;;5088560;28;20078;-79
2022/09/18 10:43:59;;;;;;;3.03;1.38;;;37.60;99.90;;;;;;5088321;28;20439;-80
2022/09/18 10:46:31;;;;;;;2.95;1.00;;;38.60;99.90;;;;;;5088110;28;20491;-80
2022/09/18 10:49:01;;;;;;;3.33;1.17;;;37.10;99.90;;;;;;5089701;28;20043;-78
2022/09/18 10:51:28;;;;;;;2.65;1.35;;;38.50;99.90;;;;;;5096117;28;20012;-77
2022/09/18 10:54:13;;;;;;;3.45;2.10;;;38.30;99.90;;;;;;5087383;28;20503;-77
2022/09/18 10:56:38;;;;;;;2.65;1.30;;;39.80;99.90;;;;;;5090341;28;20509;-76
2022/09/18 10:59:26;;;;;;;2.15;1.10;;;40.50;99.90;;;;;;5090784;28;20059;-77
2022/09/18 11:01:57;;;;;;;3.10;1.25;;;40.90;99.90;;;;;;5065531;28;20032;-78
2022/09/18 11:04:22;;;;;;;2.65;1.05;;;41.70;99.90;;;;;;5088054;28;20067;-77
2022/09/18 11:06:48;;;;;;;1.70;0.90;;;40.90;99.90;;;;;;5087979;28;20069;-76
2022/09/18 11:09:20;;;;;;;3.70;1.20;;;40.80;99.90;;;;;;5087970;28;20036;-76
2022/09/18 11:11:50;;;;;;;2.08;1.10;;;40.90;99.90;;;;;;5090790;28;21417;-76
2022/09/18 11:14:23;;;;;;;2.97;1.20;;;40.90;99.90;;;;;;5092000;28;20058;-76
2022/09/18 11:16:53;;;;;;;3.78;1.27;;;38.40;99.90;;;;;;5073027;28;20388;-74
2022/09/18 11:19:28;;;;;;;2.38;0.90;;;39.40;99.90;;;;;;5092686;28;20038;-75
2022/09/18 11:21:58;;;;;;;2.85;1.60;;;41.00;99.90;;;;;;5091352;28;20032;-75
2022/09/18 11:24:27;;;;;;;2.60;1.20;;;41.00;99.90;;;;;;5090513;28;20016;-75
2022/09/18 11:26:55;;;;;;;2.60;1.08;;;40.10;99.90;;;;;;5093614;28;20077;-75
2022/09/18 11:29:32;;;;;;;3.28;1.20;;;40.50;99.90;;;;;;5095567;28;20027;-75
2022/09/18 11:32:02;;;;;;;4.05;1.20;;;40.60;99.90;;;;;;5074882;28;20072;-74
2022/09/18 11:34:31;;;;;;;3.15;1.23;;;40.30;99.90;;;;;;5075030;28;20027;-74
2022/09/18 11:37:10;;;;;;;2.65;1.00;;;40.80;99.90;;;;;;5074901;28;20042;-75
2022/09/18 11:39:39;;;;;;;2.90;1.48;;;41.00;99.90;;;;;;5074491;28;20017;-75
2022/09/18 11:42:23;;;;;;;4.70;1.17;;;39.80;99.90;;;;;;5084592;28;20057;-75
2022/09/18 11:44:51;;;;;;;2.35;0.90;;;40.10;99.90;;;;;;5091917;28;20383;-75
2022/09/18 11:47:38;;;;;;;2.65;1.25;;;40.10;99.90;;;;;;5113050;28;20047;-74
2022/09/18 11:50:16;;;;;;;2.20;1.08;;;40.10;99.90;;;;;;5094376;28;20024;-75
2022/09/18 11:53:01;;;;;;;2.47;1.13;;;40.30;99.90;;;;;;5101626;28;20020;-75
2022/09/18 11:55:36;;;;;;;2.55;1.00;;;40.00;99.90;;;;;;5110420;28;20043;-75
2022/09/18 11:58:08;;;;;;;1.92;0.90;;;40.80;99.90;;;;;;5099788;28;20034;-75
2022/09/18 12:00:47;;;;;;;2.13;1.10;;;40.80;99.90;;;;;;5094673;28;20028;-76
2022/09/18 12:03:35;;;;;;;1.77;0.90;;;40.40;99.90;;;;;;5094299;28;20043;-76
2022/09/18 12:06:20;;;;;;;2.60;1.08;;;40.20;99.90;;;;;;5094689;28;20434;-75
2022/09/18 12:09:07;;;;;;;3.08;1.02;;;39.10;99.90;;;;;;5094273;28;20039;-76
2022/09/18 12:11:43;;;;;;;2.28;0.90;;;38.20;99.90;;;;;;5094682;28;20024;-77
2022/09/18 12:14:18;;;;;;;1.48;1.00;;;38.70;99.90;;;;;;5101501;28;20455;-77
2022/09/18 12:16:58;;;;;;;1.73;1.02;;;38.90;99.90;;;;;;5103794;28;20039;-77
2022/09/18 12:19:40;;;;;;;2.08;1.00;;;40.10;99.90;;;;;;5094171;28;20020;-78
2022/09/18 12:22:33;;;;;;;2.35;1.00;;;38.40;99.90;;;;;;5092798;28;20048;-77
2022/09/18 12:24:59;;;;;;;1.63;0.90;;;38.40;99.90;;;;;;5093619;28;20078;-76
2022/09/18 12:27:27;;;;;;;2.25;0.90;;;38.50;99.90;;;;;;5075789;28;20016;-76
2022/09/18 12:29:59;;;;;;;1.98;0.80;;;39.30;99.90;;;;;;5094176;28;20047;-75
2022/09/18 12:32:56;;;;;;;2.05;1.00;;;38.80;99.90;;;;;;5093788;28;20032;-75
2022/09/18 12:35:30;;;;;;;3.47;1.00;;;39.70;99.90;;;;;;5093288;28;20039;-75
2022/09/18 12:38:11;;;;;;;2.75;1.00;;;39.30;99.90;;;;;;5094196;28;20036;-76
2022/09/18 12:40:43;;;;;;;1.70;0.98;;;39.10;99.90;;;;;;5094089;28;20124;-75
2022/09/18 12:43:24;;;;;;;2.35;1.30;;;38.20;99.90;;;;;;5093584;28;20020;-75
2022/09/18 12:46:14;;;;;;;2.15;0.93;;;37.90;99.90;;;;;;5093079;28;20032;-75
2022/09/18 12:49:17;;;;;;;1.95;1.00;;;38.80;99.90;;;;;;5084072;28;20036;-75
2022/09/18 12:52:02;;;;;;;2.33;0.90;;;37.70;99.90;;;;;;5093472;28;20028;-75
2022/09/18 12:54:38;;;;;;;1.23;0.82;;;37.10;99.90;;;;;;5093228;28;20024;-75
2022/09/18 12:57:19;;;;;;;1.48;0.75;;;38.50;99.90;;;;;;5093554;28;20218;-75
2022/09/18 12:59:44;;;;;;;3.80;1.10;;;38.10;99.90;;;;;;5092296;28;20032;-75
2022/09/18 13:02:12;;;;;;;2.55;0.88;;;38.10;99.90;;;;;;5093258;28;20078;-75
2022/09/18 13:04:46;;;;;;;1.58;0.80;;;37.60;99.90;;;;;;5093327;28;20020;-75
2022/09/18 13:07:17;;;;;;;2.05;0.98;;;36.90;99.90;;;;;;5106868;28;20059;-74
2022/09/18 13:09:50;;;;;;;2.25;1.05;;;37.50;99.90;;;;;;5113681;28;20028;-75
2022/09/18 13:12:29;;;;;;;3.15;1.13;;;37.70;99.90;;;;;;5113329;28;20020;-75